sensor_id;sensor_type;location;lat;lon;timestamp;P1;durP1;ratioP1;P2;durP2;ratioP2
49193;SDS011;35029;50.804;12.866;2023-03-12T00:00:35;9.70;;;3.50;;
49193;SDS011;35029;50.804;12.866;2023-03-12T00:03:02;6.03;;;3.30;;
49193;SDS011;35029;50.804;12.866;2023-03-12T00:05:29;5.47;;;3.03;;
49193;SDS011;35029;50.804;12.866;2023-03-12T00:07:54;7.80;;;3.80;;
49193;SDS011;35029;50.804;12.866;2023-03-12T00:10:24;5.73;;;3.40;;
49193;SDS011;35029;50.804;12.866;2023-03-12T00:12:53;7.50;;;3.23;;
49193;SDS011;35029;50.804;12.866;2023-03-12T00:15:18;7.90;;;4.10;;
49193;SDS011;35029;50.804;12.866;2023-03-12T00:17:44;10.50;;;4.20;;
49193;SDS011;35029;50.804;12.866;2023-03-12T00:20:10;7.90;;;3.30;;
49193;SDS011;35029;50.804;12.866;2023-03-12T00:22:36;6.77;;;3.50;;
49193;SDS011;35029;50.804;12.866;2023-03-12T00:25:02;8.00;;;3.97;;
49193;SDS011;35029;50.804;12.866;2023-03-12T00:27:28;7.23;;;3.60;;
49193;SDS011;35029;50.804;12.866;2023-03-12T00:29:54;6.03;;;3.47;;
49193;SDS011;35029;50.804;12.866;2023-03-12T00:32:21;6.03;;;3.60;;
49193;SDS011;35029;50.804;12.866;2023-03-12T00:34:53;5.13;;;3.17;;
49193;SDS011;35029;50.804;12.866;2023-03-12T00:37:20;6.83;;;3.70;;
49193;SDS011;35029;50.804;12.866;2023-03-12T00:39:46;8.87;;;3.87;;
49193;SDS011;35029;50.804;12.866;2023-03-12T00:42:12;5.77;;;3.47;;
49193;SDS011;35029;50.804;12.866;2023-03-12T00:44:38;8.00;;;3.80;;
49193;SDS011;35029;50.804;12.866;2023-03-12T00:47:04;6.93;;;3.60;;
49193;SDS011;35029;50.804;12.866;2023-03-12T00:49:29;5.57;;;3.63;;
49193;SDS011;35029;50.804;12.866;2023-03-12T00:51:55;12.10;;;4.07;;
49193;SDS011;35029;50.804;12.866;2023-03-12T00:54:21;9.07;;;4.07;;
49193;SDS011;35029;50.804;12.866;2023-03-12T00:56:46;5.60;;;3.37;;
49193;SDS011;35029;50.804;12.866;2023-03-12T00:59:13;8.30;;;4.00;;
49193;SDS011;35029;50.804;12.866;2023-03-12T01:01:39;6.60;;;3.97;;
49193;SDS011;35029;50.804;12.866;2023-03-12T01:04:06;7.87;;;3.57;;
49193;SDS011;35029;50.804;12.866;2023-03-12T01:06:32;7.43;;;3.90;;
49193;SDS011;35029;50.804;12.866;2023-03-12T01:08:57;7.93;;;4.03;;
49193;SDS011;35029;50.804;12.866;2023-03-12T01:11:25;10.43;;;4.70;;
49193;SDS011;35029;50.804;12.866;2023-03-12T01:13:50;7.33;;;4.10;;
49193;SDS011;35029;50.804;12.866;2023-03-12T01:16:16;8.13;;;3.90;;
49193;SDS011;35029;50.804;12.866;2023-03-12T01:18:41;10.40;;;3.87;;
49193;SDS011;35029;50.804;12.866;2023-03-12T01:21:07;8.73;;;3.93;;
49193;SDS011;35029;50.804;12.866;2023-03-12T01:23:33;6.30;;;3.70;;
49193;SDS011;35029;50.804;12.866;2023-03-12T01:25:58;4.60;;;3.47;;
49193;SDS011;35029;50.804;12.866;2023-03-12T01:28:24;6.63;;;3.10;;
49193;SDS011;35029;50.804;12.866;2023-03-12T01:30:51;6.47;;;3.43;;
49193;SDS011;35029;50.804;12.866;2023-03-12T01:33:17;5.97;;;3.00;;
49193;SDS011;35029;50.804;12.866;2023-03-12T01:35:42;5.77;;;3.90;;
49193;SDS011;35029;50.804;12.866;2023-03-12T01:38:11;6.33;;;3.47;;
49193;SDS011;35029;50.804;12.866;2023-03-12T01:40:39;6.53;;;3.50;;
49193;SDS011;35029;50.804;12.866;2023-03-12T01:43:39;8.50;;;3.77;;
49193;SDS011;35029;50.804;12.866;2023-03-12T01:46:23;8.07;;;3.30;;
49193;SDS011;35029;50.804;12.866;2023-03-12T01:49:00;6.25;;;3.42;;
49193;SDS011;35029;50.804;12.866;2023-03-12T01:51:44;5.70;;;3.07;;
49193;SDS011;35029;50.804;12.866;2023-03-12T01:57:15;7.77;;;2.70;;
49193;SDS011;35029;50.804;12.866;2023-03-12T01:59:46;7.80;;;3.10;;
49193;SDS011;35029;50.804;12.866;2023-03-12T02:02:15;8.73;;;3.20;;
49193;SDS011;35029;50.804;12.866;2023-03-12T02:04:42;5.30;;;3.00;;
49193;SDS011;35029;50.804;12.866;2023-03-12T02:07:11;4.73;;;3.20;;
49193;SDS011;35029;50.804;12.866;2023-03-12T02:09:40;7.60;;;3.20;;
49193;SDS011;35029;50.804;12.866;2023-03-12T02:12:10;6.43;;;3.40;;
49193;SDS011;35029;50.804;12.866;2023-03-12T02:14:36;6.83;;;3.43;;
49193;SDS011;35029;50.804;12.866;2023-03-12T02:17:02;9.47;;;3.77;;
49193;SDS011;35029;50.804;12.866;2023-03-12T02:22:22;7.97;;;3.40;;
49193;SDS011;35029;50.804;12.866;2023-03-12T02:27:32;7.93;;;3.07;;
49193;SDS011;35029;50.804;12.866;2023-03-12T02:30:00;7.83;;;3.70;;
49193;SDS011;35029;50.804;12.866;2023-03-12T02:32:31;10.40;;;3.70;;
49193;SDS011;35029;50.804;12.866;2023-03-12T02:37:27;6.40;;;2.63;;
49193;SDS011;35029;50.804;12.866;2023-03-12T02:39:59;7.67;;;3.00;;
49193;SDS011;35029;50.804;12.866;2023-03-12T02:42:31;7.40;;;4.07;;
49193;SDS011;35029;50.804;12.866;2023-03-12T02:44:57;7.73;;;3.80;;
49193;SDS011;35029;50.804;12.866;2023-03-12T02:47:24;5.93;;;3.27;;
49193;SDS011;35029;50.804;12.866;2023-03-12T02:49:50;7.77;;;3.03;;
49193;SDS011;35029;50.804;12.866;2023-03-12T02:52:17;8.53;;;2.83;;
49193;SDS011;35029;50.804;12.866;2023-03-12T02:54:42;7.50;;;3.10;;
49193;SDS011;35029;50.804;12.866;2023-03-12T02:57:09;5.70;;;3.30;;
49193;SDS011;35029;50.804;12.866;2023-03-12T02:59:35;6.83;;;3.40;;
49193;SDS011;35029;50.804;12.866;2023-03-12T03:02:02;6.83;;;2.87;;
49193;SDS011;35029;50.804;12.866;2023-03-12T03:04:29;3.83;;;2.40;;
49193;SDS011;35029;50.804;12.866;2023-03-12T03:06:56;3.83;;;2.23;;
49193;SDS011;35029;50.804;12.866;2023-03-12T03:09:21;7.97;;;2.83;;
49193;SDS011;35029;50.804;12.866;2023-03-12T03:11:49;5.43;;;2.37;;
49193;SDS011;35029;50.804;12.866;2023-03-12T03:14:14;5.23;;;2.37;;
49193;SDS011;35029;50.804;12.866;2023-03-12T03:16:41;6.37;;;2.67;;
49193;SDS011;35029;50.804;12.866;2023-03-12T03:19:06;6.07;;;2.53;;
49193;SDS011;35029;50.804;12.866;2023-03-12T03:21:33;4.07;;;2.27;;
49193;SDS011;35029;50.804;12.866;2023-03-12T03:23:59;4.03;;;2.30;;
49193;SDS011;35029;50.804;12.866;2023-03-12T03:26:25;4.83;;;2.30;;
49193;SDS011;35029;50.804;12.866;2023-03-12T03:28:51;3.83;;;2.47;;
49193;SDS011;35029;50.804;12.866;2023-03-12T03:31:17;5.83;;;2.07;;
49193;SDS011;35029;50.804;12.866;2023-03-12T03:33:43;4.10;;;2.00;;
49193;SDS011;35029;50.804;12.866;2023-03-12T03:36:11;5.13;;;2.47;;
49193;SDS011;35029;50.804;12.866;2023-03-12T03:38:51;4.33;;;2.30;;
49193;SDS011;35029;50.804;12.866;2023-03-12T03:41:18;4.70;;;2.10;;
49193;SDS011;35029;50.804;12.866;2023-03-12T03:43:45;4.03;;;2.13;;
49193;SDS011;35029;50.804;12.866;2023-03-12T03:46:12;5.37;;;2.27;;
49193;SDS011;35029;50.804;12.866;2023-03-12T03:48:41;8.57;;;2.77;;
49193;SDS011;35029;50.804;12.866;2023-03-12T03:51:08;4.93;;;2.10;;
49193;SDS011;35029;50.804;12.866;2023-03-12T03:53:37;5.10;;;2.30;;
49193;SDS011;35029;50.804;12.866;2023-03-12T03:56:10;9.73;;;2.90;;
49193;SDS011;35029;50.804;12.866;2023-03-12T03:58:40;5.73;;;3.00;;
49193;SDS011;35029;50.804;12.866;2023-03-12T04:01:06;6.47;;;2.47;;
49193;SDS011;35029;50.804;12.866;2023-03-12T04:03:33;6.03;;;2.63;;
49193;SDS011;35029;50.804;12.866;2023-03-12T04:05:59;7.83;;;2.47;;
49193;SDS011;35029;50.804;12.866;2023-03-12T04:08:28;2.97;;;2.10;;
49193;SDS011;35029;50.804;12.866;2023-03-12T04:10:54;6.73;;;2.10;;
49193;SDS011;35029;50.804;12.866;2023-03-12T04:13:20;6.70;;;2.67;;
49193;SDS011;35029;50.804;12.866;2023-03-12T04:15:46;7.00;;;2.37;;
49193;SDS011;35029;50.804;12.866;2023-03-12T04:18:14;6.50;;;2.30;;
49193;SDS011;35029;50.804;12.866;2023-03-12T04:20:39;7.53;;;2.50;;
49193;SDS011;35029;50.804;12.866;2023-03-12T04:23:06;4.67;;;2.27;;
49193;SDS011;35029;50.804;12.866;2023-03-12T04:25:32;2.77;;;1.83;;
49193;SDS011;35029;50.804;12.866;2023-03-12T04:27:57;7.37;;;2.20;;
49193;SDS011;35029;50.804;12.866;2023-03-12T04:30:23;4.07;;;2.00;;
49193;SDS011;35029;50.804;12.866;2023-03-12T04:32:49;3.60;;;1.90;;
49193;SDS011;35029;50.804;12.866;2023-03-12T04:35:14;4.13;;;2.13;;
49193;SDS011;35029;50.804;12.866;2023-03-12T04:37:40;4.53;;;2.33;;
49193;SDS011;35029;50.804;12.866;2023-03-12T04:40:06;4.10;;;1.90;;
49193;SDS011;35029;50.804;12.866;2023-03-12T04:42:34;4.70;;;2.00;;
49193;SDS011;35029;50.804;12.866;2023-03-12T04:45:00;4.23;;;2.10;;
49193;SDS011;35029;50.804;12.866;2023-03-12T04:47:29;6.73;;;1.97;;
49193;SDS011;35029;50.804;12.866;2023-03-12T04:49:55;7.07;;;2.17;;
49193;SDS011;35029;50.804;12.866;2023-03-12T04:52:21;5.33;;;1.83;;
49193;SDS011;35029;50.804;12.866;2023-03-12T04:54:46;4.70;;;1.90;;
49193;SDS011;35029;50.804;12.866;2023-03-12T04:57:12;3.27;;;1.60;;
49193;SDS011;35029;50.804;12.866;2023-03-12T04:59:39;5.97;;;1.90;;
49193;SDS011;35029;50.804;12.866;2023-03-12T05:02:05;6.40;;;1.73;;
49193;SDS011;35029;50.804;12.866;2023-03-12T05:04:31;2.53;;;1.80;;
49193;SDS011;35029;50.804;12.866;2023-03-12T05:06:56;3.60;;;2.00;;
49193;SDS011;35029;50.804;12.866;2023-03-12T05:09:22;5.30;;;1.90;;
49193;SDS011;35029;50.804;12.866;2023-03-12T05:11:48;6.37;;;1.93;;
49193;SDS011;35029;50.804;12.866;2023-03-12T05:14:16;4.23;;;2.07;;
49193;SDS011;35029;50.804;12.866;2023-03-12T05:16:45;4.47;;;1.83;;
49193;SDS011;35029;50.804;12.866;2023-03-12T05:19:11;7.10;;;2.40;;
49193;SDS011;35029;50.804;12.866;2023-03-12T05:21:38;3.17;;;1.57;;
49193;SDS011;35029;50.804;12.866;2023-03-12T05:24:05;4.50;;;1.77;;
49193;SDS011;35029;50.804;12.866;2023-03-12T05:26:32;6.23;;;1.77;;
49193;SDS011;35029;50.804;12.866;2023-03-12T05:29:08;5.43;;;1.70;;
49193;SDS011;35029;50.804;12.866;2023-03-12T05:31:35;6.43;;;1.90;;
49193;SDS011;35029;50.804;12.866;2023-03-12T05:34:03;4.33;;;1.87;;
49193;SDS011;35029;50.804;12.866;2023-03-12T05:36:30;2.37;;;1.60;;
49193;SDS011;35029;50.804;12.866;2023-03-12T05:38:56;2.97;;;1.83;;
49193;SDS011;35029;50.804;12.866;2023-03-12T05:41:25;3.10;;;1.73;;
49193;SDS011;35029;50.804;12.866;2023-03-12T05:43:56;3.90;;;1.50;;
49193;SDS011;35029;50.804;12.866;2023-03-12T05:46:24;6.33;;;2.07;;
49193;SDS011;35029;50.804;12.866;2023-03-12T05:48:52;8.40;;;2.07;;
49193;SDS011;35029;50.804;12.866;2023-03-12T05:51:18;8.13;;;1.80;;
49193;SDS011;35029;50.804;12.866;2023-03-12T05:53:44;4.70;;;1.77;;
49193;SDS011;35029;50.804;12.866;2023-03-12T05:56:11;7.80;;;1.93;;
49193;SDS011;35029;50.804;12.866;2023-03-12T05:58:38;8.37;;;2.10;;
49193;SDS011;35029;50.804;12.866;2023-03-12T06:01:16;4.30;;;1.70;;
49193;SDS011;35029;50.804;12.866;2023-03-12T06:03:48;3.15;;;1.70;;
49193;SDS011;35029;50.804;12.866;2023-03-12T06:06:16;4.60;;;1.73;;
49193;SDS011;35029;50.804;12.866;2023-03-12T06:08:44;4.13;;;1.50;;
49193;SDS011;35029;50.804;12.866;2023-03-12T06:11:10;3.40;;;1.63;;
49193;SDS011;35029;50.804;12.866;2023-03-12T06:13:37;4.73;;;1.60;;
49193;SDS011;35029;50.804;12.866;2023-03-12T06:21:41;3.13;;;1.57;;
49193;SDS011;35029;50.804;12.866;2023-03-12T06:27:24;3.30;;;1.30;;
49193;SDS011;35029;50.804;12.866;2023-03-12T06:30:04;4.67;;;1.67;;
49193;SDS011;35029;50.804;12.866;2023-03-12T06:32:33;2.40;;;1.63;;
49193;SDS011;35029;50.804;12.866;2023-03-12T06:35:05;7.87;;;1.93;;
49193;SDS011;35029;50.804;12.866;2023-03-12T06:37:30;4.27;;;1.80;;
49193;SDS011;35029;50.804;12.866;2023-03-12T06:43:11;4.27;;;1.90;;
49193;SDS011;35029;50.804;12.866;2023-03-12T06:45:38;6.82;;;2.60;;
49193;SDS011;35029;50.804;12.866;2023-03-12T06:48:05;4.90;;;1.60;;
49193;SDS011;35029;50.804;12.866;2023-03-12T06:50:30;5.17;;;2.57;;
49193;SDS011;35029;50.804;12.866;2023-03-12T06:52:56;3.73;;;1.63;;
49193;SDS011;35029;50.804;12.866;2023-03-12T06:55:22;4.63;;;2.13;;
49193;SDS011;35029;50.804;12.866;2023-03-12T06:57:47;3.53;;;1.70;;
49193;SDS011;35029;50.804;12.866;2023-03-12T07:00:13;5.73;;;1.60;;
49193;SDS011;35029;50.804;12.866;2023-03-12T07:02:39;4.37;;;1.87;;
49193;SDS011;35029;50.804;12.866;2023-03-12T07:05:04;5.40;;;1.70;;
49193;SDS011;35029;50.804;12.866;2023-03-12T07:07:30;5.53;;;1.93;;
49193;SDS011;35029;50.804;12.866;2023-03-12T07:09:56;5.03;;;2.20;;
49193;SDS011;35029;50.804;12.866;2023-03-12T07:12:21;5.87;;;1.80;;
49193;SDS011;35029;50.804;12.866;2023-03-12T07:14:47;4.17;;;2.60;;
49193;SDS011;35029;50.804;12.866;2023-03-12T07:17:13;11.10;;;2.92;;
49193;SDS011;35029;50.804;12.866;2023-03-12T07:19:38;9.77;;;3.97;;
49193;SDS011;35029;50.804;12.866;2023-03-12T07:22:04;6.20;;;2.73;;
49193;SDS011;35029;50.804;12.866;2023-03-12T07:24:29;4.15;;;2.58;;
49193;SDS011;35029;50.804;12.866;2023-03-12T07:26:55;6.27;;;2.80;;
49193;SDS011;35029;50.804;12.866;2023-03-12T07:29:21;4.20;;;2.20;;
49193;SDS011;35029;50.804;12.866;2023-03-12T07:31:46;5.57;;;2.38;;
49193;SDS011;35029;50.804;12.866;2023-03-12T07:34:13;3.38;;;2.03;;
49193;SDS011;35029;50.804;12.866;2023-03-12T07:36:39;4.35;;;1.80;;
49193;SDS011;35029;50.804;12.866;2023-03-12T07:39:04;4.00;;;2.40;;
49193;SDS011;35029;50.804;12.866;2023-03-12T07:41:30;7.50;;;2.15;;
49193;SDS011;35029;50.804;12.866;2023-03-12T07:43:56;3.35;;;2.35;;
49193;SDS011;35029;50.804;12.866;2023-03-12T07:46:21;3.50;;;2.28;;
49193;SDS011;35029;50.804;12.866;2023-03-12T07:48:47;4.72;;;2.40;;
49193;SDS011;35029;50.804;12.866;2023-03-12T07:51:12;5.57;;;2.70;;
49193;SDS011;35029;50.804;12.866;2023-03-12T07:53:38;5.35;;;2.10;;
49193;SDS011;35029;50.804;12.866;2023-03-12T07:56:04;4.30;;;1.63;;
49193;SDS011;35029;50.804;12.866;2023-03-12T07:58:30;3.38;;;2.08;;
49193;SDS011;35029;50.804;12.866;2023-03-12T08:00:55;5.38;;;2.10;;
49193;SDS011;35029;50.804;12.866;2023-03-12T08:03:21;4.35;;;2.05;;
49193;SDS011;35029;50.804;12.866;2023-03-12T08:05:57;3.33;;;2.22;;
49193;SDS011;35029;50.804;12.866;2023-03-12T08:08:27;4.97;;;2.20;;
49193;SDS011;35029;50.804;12.866;2023-03-12T08:10:54;4.75;;;2.38;;
49193;SDS011;35029;50.804;12.866;2023-03-12T08:13:19;7.55;;;2.55;;
49193;SDS011;35029;50.804;12.866;2023-03-12T08:15:48;7.43;;;3.55;;
49193;SDS011;35029;50.804;12.866;2023-03-12T08:18:16;6.93;;;3.10;;
49193;SDS011;35029;50.804;12.866;2023-03-12T08:20:43;7.20;;;3.58;;
49193;SDS011;35029;50.804;12.866;2023-03-12T08:23:08;6.45;;;3.83;;
49193;SDS011;35029;50.804;12.866;2023-03-12T08:25:34;6.07;;;3.38;;
49193;SDS011;35029;50.804;12.866;2023-03-12T08:28:01;10.77;;;4.75;;
49193;SDS011;35029;50.804;12.866;2023-03-12T08:30:28;4.75;;;3.40;;
49193;SDS011;35029;50.804;12.866;2023-03-12T08:32:54;8.32;;;3.78;;
49193;SDS011;35029;50.804;12.866;2023-03-12T08:35:20;5.88;;;3.35;;
49193;SDS011;35029;50.804;12.866;2023-03-12T08:37:46;6.63;;;2.85;;
49193;SDS011;35029;50.804;12.866;2023-03-12T08:40:12;6.03;;;2.67;;
49193;SDS011;35029;50.804;12.866;2023-03-12T08:42:41;9.35;;;2.97;;
49193;SDS011;35029;50.804;12.866;2023-03-12T08:45:09;5.20;;;2.35;;
49193;SDS011;35029;50.804;12.866;2023-03-12T08:47:39;5.13;;;2.95;;
49193;SDS011;35029;50.804;12.866;2023-03-12T08:50:06;6.18;;;2.72;;
49193;SDS011;35029;50.804;12.866;2023-03-12T08:52:32;7.68;;;3.33;;
49193;SDS011;35029;50.804;12.866;2023-03-12T08:54:58;7.55;;;3.00;;
49193;SDS011;35029;50.804;12.866;2023-03-12T08:57:24;6.32;;;3.20;;
49193;SDS011;35029;50.804;12.866;2023-03-12T08:59:49;5.85;;;2.72;;
49193;SDS011;35029;50.804;12.866;2023-03-12T09:02:15;5.80;;;2.38;;
49193;SDS011;35029;50.804;12.866;2023-03-12T09:04:45;4.72;;;2.10;;
49193;SDS011;35029;50.804;12.866;2023-03-12T09:07:12;3.90;;;2.13;;
49193;SDS011;35029;50.804;12.866;2023-03-12T09:09:38;4.25;;;2.15;;
49193;SDS011;35029;50.804;12.866;2023-03-12T09:12:04;4.70;;;1.80;;
49193;SDS011;35029;50.804;12.866;2023-03-12T09:14:30;5.35;;;2.30;;
49193;SDS011;35029;50.804;12.866;2023-03-12T09:16:56;5.00;;;1.90;;
49193;SDS011;35029;50.804;12.866;2023-03-12T09:19:22;9.73;;;2.22;;
49193;SDS011;35029;50.804;12.866;2023-03-12T09:21:47;4.88;;;2.20;;
49193;SDS011;35029;50.804;12.866;2023-03-12T09:24:13;4.60;;;2.35;;
49193;SDS011;35029;50.804;12.866;2023-03-12T09:26:39;3.33;;;2.10;;
49193;SDS011;35029;50.804;12.866;2023-03-12T09:29:04;4.35;;;2.10;;
49193;SDS011;35029;50.804;12.866;2023-03-12T09:31:30;4.82;;;2.53;;
49193;SDS011;35029;50.804;12.866;2023-03-12T09:33:55;6.32;;;2.55;;
49193;SDS011;35029;50.804;12.866;2023-03-12T09:36:21;3.30;;;2.42;;
49193;SDS011;35029;50.804;12.866;2023-03-12T09:38:47;6.88;;;2.47;;
49193;SDS011;35029;50.804;12.866;2023-03-12T09:41:19;5.72;;;2.88;;
49193;SDS011;35029;50.804;12.866;2023-03-12T09:43:57;4.85;;;3.00;;
49193;SDS011;35029;50.804;12.866;2023-03-12T09:46:32;5.97;;;3.00;;
49193;SDS011;35029;50.804;12.866;2023-03-12T09:49:04;7.38;;;2.78;;
49193;SDS011;35029;50.804;12.866;2023-03-12T09:51:40;3.55;;;2.03;;
49193;SDS011;35029;50.804;12.866;2023-03-12T09:57:07;5.95;;;2.90;;
49193;SDS011;35029;50.804;12.866;2023-03-12T09:59:36;4.97;;;2.50;;
49193;SDS011;35029;50.804;12.866;2023-03-12T10:02:04;4.72;;;2.70;;
49193;SDS011;35029;50.804;12.866;2023-03-12T10:04:57;4.43;;;2.35;;
49193;SDS011;35029;50.804;12.866;2023-03-12T10:07:35;11.95;;;3.05;;
49193;SDS011;35029;50.804;12.866;2023-03-12T10:16:06;9.45;;;3.00;;
49193;SDS011;35029;50.804;12.866;2023-03-12T10:18:50;5.40;;;2.80;;
49193;SDS011;35029;50.804;12.866;2023-03-12T10:27:00;15.73;;;6.90;;
49193;SDS011;35029;50.804;12.866;2023-03-12T10:29:31;7.70;;;4.40;;
49193;SDS011;35029;50.804;12.866;2023-03-12T10:32:06;7.95;;;2.90;;
49193;SDS011;35029;50.804;12.866;2023-03-12T10:34:40;13.60;;;3.38;;
49193;SDS011;35029;50.804;12.866;2023-03-12T10:39:42;6.78;;;2.88;;
49193;SDS011;35029;50.804;12.866;2023-03-12T10:42:30;3.83;;;2.40;;
49193;SDS011;35029;50.804;12.866;2023-03-12T10:44:58;4.30;;;2.33;;
49193;SDS011;35029;50.804;12.866;2023-03-12T10:47:40;4.75;;;2.70;;
49193;SDS011;35029;50.804;12.866;2023-03-12T10:50:15;5.72;;;2.50;;
49193;SDS011;35029;50.804;12.866;2023-03-12T10:52:50;4.50;;;2.40;;
49193;SDS011;35029;50.804;12.866;2023-03-12T10:55:21;4.70;;;2.90;;
49193;SDS011;35029;50.804;12.866;2023-03-12T10:57:54;6.60;;;3.03;;
49193;SDS011;35029;50.804;12.866;2023-03-12T11:00:24;6.50;;;2.85;;
49193;SDS011;35029;50.804;12.866;2023-03-12T11:05:35;7.50;;;2.17;;
49193;SDS011;35029;50.804;12.866;2023-03-12T11:10:48;3.63;;;2.00;;
49193;SDS011;35029;50.804;12.866;2023-03-12T11:13:28;4.40;;;2.35;;
49193;SDS011;35029;50.804;12.866;2023-03-12T11:15:59;8.27;;;2.55;;
49193;SDS011;35029;50.804;12.866;2023-03-12T11:23:34;3.30;;;1.52;;
49193;SDS011;35029;50.804;12.866;2023-03-12T11:26:02;3.67;;;1.90;;
49193;SDS011;35029;50.804;12.866;2023-03-12T11:28:34;6.60;;;1.95;;
49193;SDS011;35029;50.804;12.866;2023-03-12T11:31:02;2.45;;;1.55;;
49193;SDS011;35029;50.804;12.866;2023-03-12T11:33:33;4.43;;;1.63;;
49193;SDS011;35029;50.804;12.866;2023-03-12T11:51:50;4.38;;;1.98;;
49193;SDS011;35029;50.804;12.866;2023-03-12T11:54:27;3.45;;;2.15;;
49193;SDS011;35029;50.804;12.866;2023-03-12T11:57:05;5.72;;;2.20;;
49193;SDS011;35029;50.804;12.866;2023-03-12T12:02:50;4.68;;;2.47;;
49193;SDS011;35029;50.804;12.866;2023-03-12T12:11:13;4.07;;;2.17;;
49193;SDS011;35029;50.804;12.866;2023-03-12T12:14:09;4.97;;;2.58;;
49193;SDS011;35029;50.804;12.866;2023-03-12T12:19:28;4.20;;;2.40;;
49193;SDS011;35029;50.804;12.866;2023-03-12T12:24:37;8.00;;;2.75;;
49193;SDS011;35029;50.804;12.866;2023-03-12T12:40:45;5.88;;;3.08;;
49193;SDS011;35029;50.804;12.866;2023-03-12T12:48:40;4.68;;;2.47;;
49193;SDS011;35029;50.804;12.866;2023-03-12T12:51:08;6.18;;;2.85;;
49193;SDS011;35029;50.804;12.866;2023-03-12T12:53:38;7.53;;;2.80;;
49193;SDS011;35029;50.804;12.866;2023-03-12T12:56:16;4.47;;;2.30;;
49193;SDS011;35029;50.804;12.866;2023-03-12T13:01:33;3.78;;;2.38;;
49193;SDS011;35029;50.804;12.866;2023-03-12T13:04:02;10.45;;;2.72;;
49193;SDS011;35029;50.804;12.866;2023-03-12T13:09:41;4.07;;;2.10;;
49193;SDS011;35029;50.804;12.866;2023-03-12T13:12:13;6.30;;;3.30;;
49193;SDS011;35029;50.804;12.866;2023-03-12T13:14:47;7.35;;;3.20;;
49193;SDS011;35029;50.804;12.866;2023-03-12T13:17:24;7.20;;;2.70;;
49193;SDS011;35029;50.804;12.866;2023-03-12T13:20:14;5.85;;;2.85;;
49193;SDS011;35029;50.804;12.866;2023-03-12T13:33:55;3.35;;;2.50;;
49193;SDS011;35029;50.804;12.866;2023-03-12T13:36:23;6.60;;;2.75;;
49193;SDS011;35029;50.804;12.866;2023-03-12T13:38:57;10.10;;;3.60;;
49193;SDS011;35029;50.804;12.866;2023-03-12T13:41:34;6.80;;;3.00;;
49193;SDS011;35029;50.804;12.866;2023-03-12T13:47:03;8.45;;;3.00;;
49193;SDS011;35029;50.804;12.866;2023-03-12T13:49:39;6.60;;;2.83;;
49193;SDS011;35029;50.804;12.866;2023-03-12T13:52:27;5.32;;;2.72;;
49193;SDS011;35029;50.804;12.866;2023-03-12T13:55:00;9.32;;;2.95;;
49193;SDS011;35029;50.804;12.866;2023-03-12T13:57:43;10.50;;;2.72;;
49193;SDS011;35029;50.804;12.866;2023-03-12T14:00:19;7.63;;;2.50;;
49193;SDS011;35029;50.804;12.866;2023-03-12T14:02:52;5.80;;;2.47;;
49193;SDS011;35029;50.804;12.866;2023-03-12T14:05:22;5.00;;;2.75;;
49193;SDS011;35029;50.804;12.866;2023-03-12T14:15:57;8.57;;;2.97;;
49193;SDS011;35029;50.804;12.866;2023-03-12T14:18:34;4.72;;;2.90;;
49193;SDS011;35029;50.804;12.866;2023-03-12T14:21:05;7.53;;;3.10;;
49193;SDS011;35029;50.804;12.866;2023-03-12T14:23:34;5.50;;;2.97;;
49193;SDS011;35029;50.804;12.866;2023-03-12T14:26:04;5.40;;;3.00;;
49193;SDS011;35029;50.804;12.866;2023-03-12T14:28:37;7.72;;;3.50;;
49193;SDS011;35029;50.804;12.866;2023-03-12T14:36:41;5.90;;;3.40;;
49193;SDS011;35029;50.804;12.866;2023-03-12T14:39:17;8.05;;;4.13;;
49193;SDS011;35029;50.804;12.866;2023-03-12T14:41:52;7.43;;;3.83;;
49193;SDS011;35029;50.804;12.866;2023-03-12T14:44:26;6.70;;;3.17;;
49193;SDS011;35029;50.804;12.866;2023-03-12T14:47:02;9.80;;;3.60;;
49193;SDS011;35029;50.804;12.866;2023-03-12T14:49:42;7.93;;;4.20;;
49193;SDS011;35029;50.804;12.866;2023-03-12T14:52:27;8.70;;;4.30;;
49193;SDS011;35029;50.804;12.866;2023-03-12T14:57:25;15.05;;;8.25;;
49193;SDS011;35029;50.804;12.866;2023-03-12T15:00:00;9.73;;;5.03;;
49193;SDS011;35029;50.804;12.866;2023-03-12T15:02:28;7.35;;;3.15;;
49193;SDS011;35029;50.804;12.866;2023-03-12T15:04:56;5.63;;;3.67;;
49193;SDS011;35029;50.804;12.866;2023-03-12T15:07:34;6.75;;;4.03;;
49193;SDS011;35029;50.804;12.866;2023-03-12T15:10:05;5.57;;;3.47;;
49193;SDS011;35029;50.804;12.866;2023-03-12T15:12:40;6.18;;;3.97;;
49193;SDS011;35029;50.804;12.866;2023-03-12T15:15:10;5.10;;;3.45;;
49193;SDS011;35029;50.804;12.866;2023-03-12T15:17:53;8.48;;;3.33;;
49193;SDS011;35029;50.804;12.866;2023-03-12T15:20:19;6.78;;;3.30;;
49193;SDS011;35029;50.804;12.866;2023-03-12T15:22:47;5.75;;;3.47;;
49193;SDS011;35029;50.804;12.866;2023-03-12T15:25:23;5.05;;;2.95;;
49193;SDS011;35029;50.804;12.866;2023-03-12T15:30:36;4.95;;;3.28;;
49193;SDS011;35029;50.804;12.866;2023-03-12T15:33:21;5.05;;;3.22;;
49193;SDS011;35029;50.804;12.866;2023-03-12T15:38:51;5.40;;;3.28;;
49193;SDS011;35029;50.804;12.866;2023-03-12T15:41:24;4.35;;;2.78;;
49193;SDS011;35029;50.804;12.866;2023-03-12T15:44:22;5.85;;;2.58;;
49193;SDS011;35029;50.804;12.866;2023-03-12T15:46:53;4.18;;;2.33;;
49193;SDS011;35029;50.804;12.866;2023-03-12T15:49:27;5.45;;;3.08;;
49193;SDS011;35029;50.804;12.866;2023-03-12T15:52:39;4.82;;;2.22;;
49193;SDS011;35029;50.804;12.866;2023-03-12T15:55:05;4.90;;;2.22;;
49193;SDS011;35029;50.804;12.866;2023-03-12T15:57:50;3.40;;;1.90;;
49193;SDS011;35029;50.804;12.866;2023-03-12T16:00:19;3.60;;;2.40;;
49193;SDS011;35029;50.804;12.866;2023-03-12T16:05:24;2.95;;;1.80;;
49193;SDS011;35029;50.804;12.866;2023-03-12T16:07:52;3.60;;;2.20;;
49193;SDS011;35029;50.804;12.866;2023-03-12T16:10:18;1.95;;;1.58;;
49193;SDS011;35029;50.804;12.866;2023-03-12T16:12:46;5.10;;;1.80;;
49193;SDS011;35029;50.804;12.866;2023-03-12T16:15:14;3.63;;;1.60;;
49193;SDS011;35029;50.804;12.866;2023-03-12T16:17:42;3.58;;;1.83;;
49193;SDS011;35029;50.804;12.866;2023-03-12T16:20:13;3.75;;;1.63;;
49193;SDS011;35029;50.804;12.866;2023-03-12T16:22:39;3.85;;;1.50;;
49193;SDS011;35029;50.804;12.866;2023-03-12T16:25:05;3.20;;;1.80;;
49193;SDS011;35029;50.804;12.866;2023-03-12T16:27:32;2.05;;;1.35;;
49193;SDS011;35029;50.804;12.866;2023-03-12T16:30:10;2.33;;;1.75;;
49193;SDS011;35029;50.804;12.866;2023-03-12T16:32:39;3.75;;;1.80;;
49193;SDS011;35029;50.804;12.866;2023-03-12T16:35:10;2.17;;;1.83;;
49193;SDS011;35029;50.804;12.866;2023-03-12T16:37:37;2.55;;;1.73;;
49193;SDS011;35029;50.804;12.866;2023-03-12T16:40:03;4.45;;;1.52;;
49193;SDS011;35029;50.804;12.866;2023-03-12T16:42:30;2.33;;;1.85;;
49193;SDS011;35029;50.804;12.866;2023-03-12T16:44:58;2.85;;;1.77;;
49193;SDS011;35029;50.804;12.866;2023-03-12T16:47:24;1.77;;;1.60;;
49193;SDS011;35029;50.804;12.866;2023-03-12T16:49:50;2.25;;;1.55;;
49193;SDS011;35029;50.804;12.866;2023-03-12T16:52:16;4.13;;;1.90;;
49193;SDS011;35029;50.804;12.866;2023-03-12T16:54:43;3.50;;;1.40;;
49193;SDS011;35029;50.804;12.866;2023-03-12T16:57:25;1.92;;;1.58;;
49193;SDS011;35029;50.804;12.866;2023-03-12T16:59:54;2.78;;;1.50;;
49193;SDS011;35029;50.804;12.866;2023-03-12T17:02:19;2.42;;;1.60;;
49193;SDS011;35029;50.804;12.866;2023-03-12T17:04:47;1.75;;;1.30;;
49193;SDS011;35029;50.804;12.866;2023-03-12T17:07:15;1.63;;;1.40;;
49193;SDS011;35029;50.804;12.866;2023-03-12T17:09:42;3.83;;;1.27;;